createdAt,value
2018-01-04T17:50:00.739Z,98629.75
2018-01-04T17:51:05.953Z,98621.98
2018-01-04T17:52:11.057Z,98622.64
2018-01-04T17:53:16.066Z,98621.15
2018-01-04T17:54:20.262Z,98623.70
2018-01-04T17:55:24.523Z,98618.91
2018-01-04T17:56:30.103Z,98623.30
2018-01-04T17:57:35.720Z,98616.98
2018-01-04T17:58:40.096Z,98624.92
2018-01-04T17:59:44.329Z,98626.66
2018-01-04T18:00:49.316Z,98625.78
2018-01-04T18:01:53.576Z,98628.69
2018-01-04T18:02:57.827Z,98623.03
2018-01-04T18:04:04.554Z,98612.74
2018-01-04T18:05:08.968Z,98621.46
2018-01-04T18:06:13.234Z,98610.78
2018-01-04T18:07:17.490Z,98611.67
2018-01-04T18:08:22.457Z,98613.19
2018-01-04T18:09:27.486Z,98612.33
2018-01-04T18:10:32.773Z,98605.02
2018-01-04T18:11:39.481Z,98609.13
2018-01-04T18:12:44.483Z,98607.61
2018-01-04T18:13:49.430Z,98606.64
2018-01-04T18:14:53.643Z,98602.73
2018-01-04T18:15:58.011Z,98603.16
2018-01-04T18:17:03.240Z,98592.33
2018-01-04T18:18:07.651Z,98598.66
2018-01-04T18:19:11.858Z,98597.64
2018-01-04T18:20:16.105Z,98600.12
2018-01-04T18:21:20.599Z,98596.14
2018-01-04T18:22:24.959Z,98590.98
2018-01-04T18:23:30.767Z,98599.70
2018-01-04T18:24:35.483Z,98594.86
2018-01-04T18:25:40.040Z,98591.14
2018-01-04T18:26:44.231Z,98600.05
2018-01-04T18:27:48.437Z,98601.37
2018-01-04T18:28:52.618Z,98593.70
2018-01-04T18:29:56.882Z,98600.94
2018-01-04T18:31:03.376Z,98601.02
2018-01-04T18:32:08.580Z,98603.84
2018-01-04T18:33:12.777Z,98601.21
2018-01-04T18:34:18.200Z,98601.63
2018-01-04T18:35:23.106Z,98603.34
2018-01-04T18:36:27.370Z,98607.69
2018-01-04T18:37:33.318Z,98604.63
2018-01-04T18:38:37.667Z,98605.09
2018-01-04T18:39:41.937Z,98602.61
2018-01-04T18:40:46.986Z,98610.23
2018-01-04T18:41:51.228Z,98606.05
2018-01-04T18:42:55.509Z,98606.41
2018-01-04T18:43:59.856Z,98609.73
2018-01-04T18:45:04.072Z,98607.14
2018-01-04T18:46:08.437Z,98611.40
2018-01-04T18:47:13.437Z,98615.58
2018-01-04T18:48:17.692Z,98616.01
2018-01-04T18:49:21.935Z,98626.16
2018-01-04T18:50:26.193Z,98620.46
2018-01-04T18:51:30.911Z,98626.27
2018-01-04T18:52:36.337Z,98626.15
2018-01-04T18:53:41.393Z,98605.88
2018-01-04T18:54:46.549Z,98614.75
2018-01-04T18:55:50.923Z,98618.78
2018-01-04T18:56:56.035Z,98612.30
2018-01-04T18:58:03.146Z,98614.41
2018-01-04T18:59:08.423Z,98618.20
2018-01-04T19:00:12.625Z,98621.34
2018-01-04T19:01:16.833Z,98609.13
2018-01-04T19:02:21.289Z,98613.00
2018-01-04T19:03:25.634Z,98608.66
2018-01-04T19:04:33.893Z,98615.56
2018-01-04T19:05:38.254Z,98612.42
2018-01-04T19:06:42.485Z,98613.66
2018-01-04T19:07:47.695Z,98612.34
2018-01-04T19:08:52.644Z,98609.25
2018-01-04T19:09:57.270Z,98618.83
2018-01-04T19:11:04.510Z,98617.23
2018-01-04T19:12:09.508Z,98606.86
2018-01-04T19:13:13.707Z,98624.14
2018-01-04T19:14:17.998Z,98623.95
2018-01-04T19:15:22.786Z,98622.13
2018-01-04T19:16:27.489Z,98624.45
2018-01-04T19:17:34.917Z,98628.59
2018-01-04T19:18:39.389Z,98626.08
2018-01-04T19:19:44.412Z,98627.86
2018-01-04T19:20:48.831Z,98625.50
2018-01-04T19:21:53.322Z,98624.38
2018-01-04T19:22:58.834Z,98610.70
2018-01-04T19:24:05.366Z,98622.02
2018-01-04T19:25:09.719Z,98619.11
2018-01-04T19:26:13.980Z,98615.43
2018-01-04T19:27:18.185Z,98620.84
2018-01-04T19:28:22.556Z,98618.05
2018-01-04T19:29:27.070Z,98629.41
2018-01-04T19:30:34.456Z,98638.00
2018-01-04T19:31:38.911Z,98630.72
2018-01-04T19:32:43.085Z,98642.77
2018-01-04T19:33:48.036Z,98630.52
2018-01-04T19:34:52.494Z,98632.27
2018-01-04T19:35:56.752Z,98633.66
2018-01-04T19:37:01.969Z,98640.83
2018-01-04T19:38:06.547Z,98636.45
2018-01-04T19:39:10.847Z,98632.97
2018-01-04T19:40:15.104Z,98637.66
2018-01-04T19:41:20.712Z,98644.31
2018-01-04T19:42:25.050Z,98646.30
2018-01-04T19:43:29.867Z,98638.16
2018-01-04T19:44:35.087Z,98645.80
2018-01-04T19:45:39.298Z,98654.20
2018-01-04T19:46:43.472Z,98650.68
2018-01-04T19:47:47.990Z,98654.52
2018-01-04T19:48:52.381Z,98661.37
2018-01-04T19:49:57.394Z,98658.07
2018-01-04T19:51:02.971Z,98659.50
2018-01-04T19:52:07.197Z,98667.71
2018-01-04T19:53:11.427Z,98667.17
2018-01-04T19:54:15.587Z,98658.48
2018-01-04T19:55:20.554Z,98665.45
2018-01-04T19:56:24.970Z,98673.83
2018-01-04T19:57:29.528Z,98653.38
2018-01-04T19:58:34.869Z,98666.97
2018-01-04T19:59:39.074Z,98668.95
2018-01-04T20:00:43.252Z,98662.67
2018-01-04T20:01:47.553Z,98666.97
2018-01-04T20:02:51.869Z,98665.06
2018-01-04T20:03:56.081Z,98668.13
2018-01-04T20:05:01.847Z,98670.80
2018-01-04T20:06:06.162Z,98665.05
2018-01-04T20:07:10.387Z,98677.84
2018-01-04T20:08:14.815Z,98673.19
2018-01-04T20:09:19.888Z,98673.48
2018-01-04T20:10:24.153Z,98674.80
2018-01-04T20:11:29.146Z,98675.45
2018-01-04T20:12:33.538Z,98676.54
2018-01-04T20:13:38.541Z,98673.98
2018-01-04T20:14:43.548Z,98680.09
2018-01-04T20:15:48.312Z,98682.02
2018-01-04T20:16:52.495Z,98684.11
2018-01-04T20:17:56.724Z,98686.20
2018-01-04T20:19:01.658Z,98687.73
2018-01-04T20:20:06.208Z,98692.49
2018-01-04T20:21:10.417Z,98690.96
2018-01-04T20:22:14.644Z,98689.66
2018-01-04T20:23:19.688Z,98697.75
2018-01-04T20:24:24.114Z,98698.21
2018-01-04T20:25:28.895Z,98697.17
2018-01-04T20:26:33.278Z,98698.95
2018-01-04T20:27:38.325Z,98704.49
2018-01-04T20:28:42.631Z,98701.55
2018-01-04T20:29:47.084Z,98696.83
2018-01-04T20:30:51.291Z,98705.77
2018-01-04T20:31:55.526Z,98706.73
2018-01-04T20:33:00.411Z,98690.66
2018-01-04T20:34:05.528Z,98719.81
2018-01-04T20:35:09.831Z,98710.06
2018-01-04T20:36:14.772Z,98724.44
2018-01-04T20:37:18.997Z,98714.47
2018-01-04T20:38:25.548Z,98715.63
2018-01-04T20:39:31.069Z,98715.41
2018-01-04T20:40:35.458Z,98732.20
2018-01-04T20:41:39.839Z,98729.08
2018-01-04T20:42:44.080Z,98729.61
2018-01-04T20:43:48.816Z,98732.31
2018-01-04T20:44:53.091Z,98736.78
2018-01-04T20:45:59.074Z,98737.67
2018-01-04T20:47:03.561Z,98734.63
2018-01-04T20:48:07.784Z,98739.23
2018-01-04T20:49:12.012Z,98739.02
2018-01-04T20:50:17.012Z,98735.94
2018-01-04T20:51:21.325Z,98737.60
2018-01-04T20:52:25.692Z,98734.34
2018-01-04T20:53:31.596Z,98732.14
2018-01-04T20:54:35.818Z,98743.28
2018-01-04T20:55:40.068Z,98748.38
2018-01-04T20:56:44.363Z,98750.72
2018-01-04T20:57:48.779Z,98750.33
2018-01-04T20:58:53.626Z,98743.63
2018-01-04T20:59:59.512Z,98749.55
2018-01-04T21:01:03.910Z,98753.45
2018-01-04T21:02:08.500Z,98754.69
2018-01-04T21:03:12.761Z,98753.55
2018-01-04T21:04:17.198Z,98756.75
2018-01-04T21:05:21.415Z,98757.03
2018-01-04T21:06:25.618Z,98764.98
2018-01-04T21:07:31.095Z,98755.44
2018-01-04T21:08:36.620Z,98761.53
2018-01-04T21:09:40.902Z,98763.23
2018-01-04T21:10:45.102Z,98775.60
2018-01-04T21:11:49.618Z,98777.80
2018-01-04T21:12:53.912Z,98771.52
2018-01-04T21:13:59.842Z,98771.63
2018-01-04T21:15:04.724Z,98784.10
2018-01-04T21:16:08.894Z,98775.23
2018-01-04T21:17:13.159Z,98777.36
2018-01-04T21:18:17.380Z,98776.44
2018-01-04T21:19:22.438Z,98780.66
2018-01-04T21:20:26.667Z,98783.84
2018-01-04T21:21:31.535Z,98783.20
2018-01-04T21:22:35.910Z,98791.38
2018-01-04T21:23:40.113Z,98788.90
2018-01-04T21:24:44.333Z,98793.64
2018-01-04T21:25:48.541Z,98801.37
2018-01-04T21:26:52.886Z,98806.41
2018-01-04T21:27:58.596Z,98807.33
2018-01-04T21:29:03.966Z,98809.81
2018-01-04T21:30:08.238Z,98805.21
2018-01-04T21:31:12.522Z,98807.07
2018-01-04T21:32:18.100Z,98816.36
2018-01-04T21:33:23.208Z,98817.54
2018-01-04T21:34:29.545Z,98826.34
2018-01-04T21:35:34.494Z,98817.25
2018-01-04T21:36:39.487Z,98824.05
2018-01-04T21:37:43.888Z,98834.74
2018-01-04T21:38:48.099Z,98823.95
2018-01-04T21:39:52.333Z,98826.80
2018-01-04T21:40:57.650Z,98830.20
2018-01-04T21:42:04.608Z,98835.01
2018-01-04T21:43:09.638Z,98840.44
2018-01-04T21:44:13.874Z,98834.16
2018-01-04T21:45:18.224Z,98840.38
2018-01-04T21:46:23.248Z,98839.58
2018-01-04T21:47:27.683Z,98845.05
2018-01-04T21:48:32.961Z,98836.54
2018-01-04T21:49:37.452Z,98840.20
2018-01-04T21:50:41.650Z,98844.32
2018-01-04T21:51:46.646Z,98855.67
2018-01-04T21:52:50.939Z,98839.61
2018-01-04T21:53:56.061Z,98851.71
2018-01-04T21:55:00.880Z,98853.75
2018-01-04T21:56:06.008Z,98852.59
2018-01-04T21:57:10.268Z,98855.54
2018-01-04T21:58:14.749Z,98865.38
2018-01-04T21:59:19.900Z,98870.52
2018-01-04T22:00:24.460Z,98865.38
2018-01-04T22:01:30.116Z,98874.41
2018-01-04T22:02:34.700Z,98864.06
2018-01-04T22:03:39.011Z,98883.20
2018-01-04T22:04:43.400Z,98870.73
2018-01-04T22:05:47.588Z,98866.74
2018-01-04T22:06:51.825Z,98874.97
2018-01-04T22:07:55.996Z,98879.81
2018-01-04T22:09:01.787Z,98880.72
2018-01-04T22:10:07.880Z,98882.84
2018-01-04T22:11:12.180Z,98888.48
2018-01-04T22:12:17.897Z,98888.09
2018-01-04T22:13:22.271Z,98875.06
2018-01-04T22:14:26.699Z,98894.63
2018-01-04T22:15:31.470Z,98896.91
2018-01-04T22:16:36.745Z,98891.28
2018-01-04T22:17:41.701Z,98901.06
2018-01-04T22:18:45.885Z,98902.52
2018-01-04T22:19:51.051Z,98905.59
2018-01-04T22:20:56.686Z,98908.72
2018-01-04T22:22:01.700Z,98903.34
2018-01-04T22:23:06.914Z,98896.35
2018-01-04T22:24:11.900Z,98903.00
2018-01-04T22:25:16.142Z,98901.12
2018-01-04T22:26:20.405Z,98896.11
2018-01-04T22:27:25.558Z,98905.61
2018-01-04T22:28:31.072Z,98907.53
2018-01-04T22:29:37.075Z,98910.66
2018-01-04T22:30:42.108Z,98906.34
2018-01-04T22:31:46.292Z,98903.70
2018-01-04T22:32:50.576Z,98897.60
2018-01-04T22:33:54.780Z,98905.38
2018-01-04T22:34:59.812Z,98905.68
2018-01-04T22:36:04.295Z,98918.30
2018-01-04T22:37:09.112Z,98909.32
2018-01-04T22:38:13.353Z,98912.23
2018-01-04T22:39:18.311Z,98911.38
2018-01-04T22:40:22.689Z,98916.33
2018-01-04T22:41:28.029Z,98910.23
2018-01-04T22:42:33.432Z,98909.50
2018-01-04T22:43:37.648Z,98911.87
2018-01-04T22:44:42.125Z,98913.60
2018-01-04T22:45:46.350Z,98922.34
2018-01-04T22:46:50.732Z,98920.70
2018-01-04T22:47:55.792Z,98932.35
2018-01-04T22:49:02.376Z,98934.23
2018-01-04T22:50:07.903Z,98927.77
2018-01-04T22:51:12.130Z,98923.95
2018-01-04T22:52:17.237Z,98939.09
2018-01-04T22:53:22.148Z,98940.70
2018-01-04T22:54:26.315Z,98945.55
2018-01-04T22:55:32.228Z,98937.30
2018-01-04T22:56:36.899Z,98951.11
2018-01-04T22:57:41.121Z,98940.73
2018-01-04T22:58:46.169Z,98950.98
2018-01-04T22:59:50.488Z,98957.30
2018-01-04T23:00:54.791Z,98957.66
2018-01-04T23:02:00.141Z,98941.01
2018-01-04T23:03:05.477Z,98952.39
2018-01-04T23:04:09.838Z,98965.05
2018-01-04T23:05:14.034Z,98965.02
2018-01-04T23:06:18.220Z,98963.09
2018-01-04T23:07:22.490Z,98962.28
2018-01-04T23:08:26.793Z,98964.92
2018-01-04T23:09:33.401Z,98976.76
2018-01-04T23:10:38.048Z,98970.57
2018-01-04T23:11:42.334Z,98970.72
2018-01-04T23:12:46.524Z,98969.38
2018-01-04T23:13:52.205Z,98974.34
2018-01-04T23:14:57.035Z,98963.02
2018-01-04T23:16:03.345Z,98969.02
2018-01-04T23:17:07.709Z,98974.05
2018-01-04T23:18:11.911Z,98970.81
2018-01-04T23:19:16.096Z,98968.32
2018-01-04T23:20:21.416Z,98968.93
2018-01-04T23:21:25.842Z,98973.72
2018-01-04T23:22:32.158Z,98972.63
2018-01-04T23:23:37.357Z,98977.63
2018-01-04T23:24:41.548Z,98966.92
2018-01-04T23:25:46.591Z,98956.18
2018-01-04T23:26:51.710Z,98977.94
2018-01-04T23:27:56.707Z,98961.38
2018-01-04T23:29:01.521Z,98977.85
2018-01-04T23:30:06.720Z,98976.55
2018-01-04T23:31:10.944Z,98978.03
2018-01-04T23:32:15.102Z,98974.12
2018-01-04T23:33:19.320Z,98995.36
2018-01-04T23:34:23.603Z,98983.92
2018-01-04T23:35:29.368Z,98984.66
2018-01-04T23:36:34.450Z,98972.23
2018-01-04T23:37:38.662Z,98988.47
2018-01-04T23:38:42.844Z,98996.16
2018-01-04T23:39:47.804Z,98991.11
2018-01-04T23:40:52.227Z,98988.59
2018-01-04T23:41:56.484Z,98995.81
2018-01-04T23:43:01.264Z,99004.89
2018-01-04T23:44:07.191Z,98990.95
2018-01-04T23:45:11.347Z,98999.78
2018-01-04T23:46:15.646Z,99004.16
2018-01-04T23:47:19.848Z,98997.53
2018-01-04T23:48:24.459Z,99000.33
2018-01-04T23:49:29.569Z,98999.36
2018-01-04T23:50:35.345Z,98991.77
2018-01-04T23:51:39.845Z,98996.05
2018-01-04T23:52:44.024Z,98990.84
2018-01-04T23:53:49.083Z,99004.16
2018-01-04T23:54:53.529Z,99001.55
2018-01-04T23:55:57.764Z,99000.66
2018-01-04T23:57:03.711Z,98999.84
2018-01-04T23:58:08.072Z,98992.98
2018-01-04T23:59:12.298Z,99003.50
